sensor_id;sensor_type;location;lat;lon;timestamp;P1;durP1;ratioP1;P2;durP2;ratioP2
19436;SDS011;9854;50.968;4.168;2022-08-01T00:00:23;7.88;;;3.42;;
19436;SDS011;9854;50.968;4.168;2022-08-01T00:02:48;7.22;;;3.58;;
19436;SDS011;9854;50.968;4.168;2022-08-01T00:05:14;9.93;;;4.45;;
19436;SDS011;9854;50.968;4.168;2022-08-01T00:07:40;6.82;;;3.58;;
19436;SDS011;9854;50.968;4.168;2022-08-01T00:10:07;6.97;;;3.33;;
19436;SDS011;9854;50.968;4.168;2022-08-01T00:12:34;9.45;;;3.88;;
19436;SDS011;9854;50.968;4.168;2022-08-01T00:15:00;7.95;;;3.80;;
19436;SDS011;9854;50.968;4.168;2022-08-01T00:17:26;9.73;;;3.70;;
19436;SDS011;9854;50.968;4.168;2022-08-01T00:19:52;7.32;;;3.85;;
19436;SDS011;9854;50.968;4.168;2022-08-01T00:22:17;5.13;;;3.60;;
19436;SDS011;9854;50.968;4.168;2022-08-01T00:24:43;10.32;;;4.10;;
19436;SDS011;9854;50.968;4.168;2022-08-01T00:27:08;5.07;;;3.45;;
19436;SDS011;9854;50.968;4.168;2022-08-01T00:29:34;7.18;;;4.03;;
19436;SDS011;9854;50.968;4.168;2022-08-01T00:32:00;5.22;;;4.30;;
19436;SDS011;9854;50.968;4.168;2022-08-01T00:34:25;10.27;;;4.35;;
19436;SDS011;9854;50.968;4.168;2022-08-01T00:36:51;9.70;;;6.07;;
19436;SDS011;9854;50.968;4.168;2022-08-01T00:39:16;10.95;;;6.75;;
19436;SDS011;9854;50.968;4.168;2022-08-01T00:41:42;14.98;;;6.53;;
19436;SDS011;9854;50.968;4.168;2022-08-01T00:44:08;10.63;;;6.57;;
19436;SDS011;9854;50.968;4.168;2022-08-01T00:46:33;10.95;;;6.70;;
19436;SDS011;9854;50.968;4.168;2022-08-01T00:48:59;10.18;;;6.13;;
19436;SDS011;9854;50.968;4.168;2022-08-01T00:51:26;9.98;;;6.25;;
19436;SDS011;9854;50.968;4.168;2022-08-01T00:53:52;11.55;;;7.22;;
19436;SDS011;9854;50.968;4.168;2022-08-01T00:56:19;17.25;;;6.80;;
19436;SDS011;9854;50.968;4.168;2022-08-01T00:58:47;18.30;;;8.70;;
19436;SDS011;9854;50.968;4.168;2022-08-01T01:01:13;18.45;;;9.65;;
19436;SDS011;9854;50.968;4.168;2022-08-01T01:03:38;16.13;;;9.35;;
19436;SDS011;9854;50.968;4.168;2022-08-01T01:06:18;19.25;;;9.52;;
19436;SDS011;9854;50.968;4.168;2022-08-01T01:09:18;18.75;;;9.20;;
19436;SDS011;9854;50.968;4.168;2022-08-01T01:14:53;14.02;;;8.57;;
19436;SDS011;9854;50.968;4.168;2022-08-01T01:17:35;17.63;;;9.02;;
19436;SDS011;9854;50.968;4.168;2022-08-01T01:20:06;16.75;;;8.77;;
19436;SDS011;9854;50.968;4.168;2022-08-01T01:30:57;18.88;;;9.10;;
19436;SDS011;9854;50.968;4.168;2022-08-01T01:33:25;21.63;;;9.30;;
19436;SDS011;9854;50.968;4.168;2022-08-01T01:35:55;18.95;;;9.77;;
19436;SDS011;9854;50.968;4.168;2022-08-01T01:38:25;24.55;;;8.60;;
19436;SDS011;9854;50.968;4.168;2022-08-01T01:40:54;20.52;;;10.50;;
19436;SDS011;9854;50.968;4.168;2022-08-01T01:43:21;19.45;;;10.23;;
19436;SDS011;9854;50.968;4.168;2022-08-01T01:45:48;27.80;;;9.82;;
19436;SDS011;9854;50.968;4.168;2022-08-01T01:48:19;21.75;;;9.77;;
19436;SDS011;9854;50.968;4.168;2022-08-01T01:50:47;22.67;;;11.38;;
19436;SDS011;9854;50.968;4.168;2022-08-01T01:53:17;24.23;;;10.15;;
19436;SDS011;9854;50.968;4.168;2022-08-01T01:55:46;13.88;;;9.27;;
19436;SDS011;9854;50.968;4.168;2022-08-01T01:58:17;24.85;;;10.68;;
19436;SDS011;9854;50.968;4.168;2022-08-01T02:00:44;19.08;;;9.18;;
19436;SDS011;9854;50.968;4.168;2022-08-01T02:03:12;23.58;;;10.30;;
19436;SDS011;9854;50.968;4.168;2022-08-01T02:05:39;21.02;;;9.73;;
19436;SDS011;9854;50.968;4.168;2022-08-01T02:08:07;27.60;;;10.85;;
19436;SDS011;9854;50.968;4.168;2022-08-01T02:10:35;27.05;;;10.13;;
19436;SDS011;9854;50.968;4.168;2022-08-01T02:13:03;18.65;;;9.57;;
19436;SDS011;9854;50.968;4.168;2022-08-01T02:15:31;22.38;;;9.98;;
19436;SDS011;9854;50.968;4.168;2022-08-01T02:17:59;18.50;;;10.23;;
19436;SDS011;9854;50.968;4.168;2022-08-01T02:20:27;21.65;;;10.60;;
19436;SDS011;9854;50.968;4.168;2022-08-01T02:23:00;25.10;;;10.80;;
19436;SDS011;9854;50.968;4.168;2022-08-01T02:25:34;26.30;;;10.95;;
19436;SDS011;9854;50.968;4.168;2022-08-01T02:28:06;24.33;;;10.55;;
19436;SDS011;9854;50.968;4.168;2022-08-01T02:30:34;22.58;;;11.23;;
19436;SDS011;9854;50.968;4.168;2022-08-01T02:33:23;26.98;;;11.60;;
19436;SDS011;9854;50.968;4.168;2022-08-01T02:35:59;21.95;;;12.82;;
19436;SDS011;9854;50.968;4.168;2022-08-01T02:38:28;25.85;;;12.38;;
19436;SDS011;9854;50.968;4.168;2022-08-01T02:40:57;26.85;;;12.98;;
19436;SDS011;9854;50.968;4.168;2022-08-01T02:43:28;22.88;;;12.40;;
19436;SDS011;9854;50.968;4.168;2022-08-01T02:45:58;25.15;;;13.20;;
19436;SDS011;9854;50.968;4.168;2022-08-01T02:48:27;32.40;;;13.75;;
19436;SDS011;9854;50.968;4.168;2022-08-01T02:50:55;32.80;;;14.18;;
19436;SDS011;9854;50.968;4.168;2022-08-01T02:53:24;23.20;;;13.15;;
19436;SDS011;9854;50.968;4.168;2022-08-01T02:55:54;38.35;;;15.07;;
19436;SDS011;9854;50.968;4.168;2022-08-01T02:58:22;29.67;;;15.35;;
19436;SDS011;9854;50.968;4.168;2022-08-01T03:00:49;26.33;;;14.35;;
19436;SDS011;9854;50.968;4.168;2022-08-01T03:03:15;30.08;;;14.77;;
19436;SDS011;9854;50.968;4.168;2022-08-01T03:05:43;35.13;;;14.57;;
19436;SDS011;9854;50.968;4.168;2022-08-01T03:08:10;27.02;;;15.20;;
19436;SDS011;9854;50.968;4.168;2022-08-01T03:10:39;34.47;;;15.98;;
19436;SDS011;9854;50.968;4.168;2022-08-01T03:13:07;29.83;;;15.65;;
19436;SDS011;9854;50.968;4.168;2022-08-01T03:15:36;26.67;;;14.90;;
19436;SDS011;9854;50.968;4.168;2022-08-01T03:18:04;28.15;;;14.88;;
19436;SDS011;9854;50.968;4.168;2022-08-01T03:20:33;33.15;;;15.63;;
19436;SDS011;9854;50.968;4.168;2022-08-01T03:23:00;22.88;;;14.73;;
19436;SDS011;9854;50.968;4.168;2022-08-01T03:25:28;21.63;;;13.63;;
19436;SDS011;9854;50.968;4.168;2022-08-01T03:27:56;17.42;;;12.82;;
19436;SDS011;9854;50.968;4.168;2022-08-01T03:30:26;24.80;;;14.20;;
19436;SDS011;9854;50.968;4.168;2022-08-01T03:32:52;21.38;;;14.25;;
19436;SDS011;9854;50.968;4.168;2022-08-01T03:35:19;21.65;;;13.57;;
19436;SDS011;9854;50.968;4.168;2022-08-01T03:37:53;19.77;;;13.27;;
19436;SDS011;9854;50.968;4.168;2022-08-01T03:40:24;22.90;;;14.05;;
19436;SDS011;9854;50.968;4.168;2022-08-01T03:42:59;28.17;;;14.80;;
19436;SDS011;9854;50.968;4.168;2022-08-01T03:45:35;25.00;;;14.35;;
19436;SDS011;9854;50.968;4.168;2022-08-01T03:48:05;24.80;;;14.07;;
19436;SDS011;9854;50.968;4.168;2022-08-01T03:50:35;19.63;;;13.00;;
19436;SDS011;9854;50.968;4.168;2022-08-01T03:53:04;21.27;;;14.00;;
19436;SDS011;9854;50.968;4.168;2022-08-01T03:55:31;20.05;;;12.27;;
19436;SDS011;9854;50.968;4.168;2022-08-01T03:57:59;18.30;;;11.38;;
19436;SDS011;9854;50.968;4.168;2022-08-01T04:00:25;19.73;;;11.02;;
19436;SDS011;9854;50.968;4.168;2022-08-01T04:02:52;18.35;;;10.55;;
19436;SDS011;9854;50.968;4.168;2022-08-01T04:05:18;16.23;;;10.75;;
19436;SDS011;9854;50.968;4.168;2022-08-01T04:07:48;19.15;;;9.98;;
19436;SDS011;9854;50.968;4.168;2022-08-01T04:10:23;13.90;;;8.82;;
19436;SDS011;9854;50.968;4.168;2022-08-01T04:12:49;15.48;;;8.60;;
19436;SDS011;9854;50.968;4.168;2022-08-01T04:15:15;12.15;;;8.68;;
19436;SDS011;9854;50.968;4.168;2022-08-01T04:17:41;13.63;;;8.65;;
19436;SDS011;9854;50.968;4.168;2022-08-01T04:20:07;16.33;;;8.38;;
19436;SDS011;9854;50.968;4.168;2022-08-01T04:22:33;18.65;;;8.77;;
19436;SDS011;9854;50.968;4.168;2022-08-01T04:25:00;13.90;;;8.40;;
19436;SDS011;9854;50.968;4.168;2022-08-01T04:27:31;13.20;;;7.20;;
19436;SDS011;9854;50.968;4.168;2022-08-01T04:30:00;14.63;;;8.60;;
19436;SDS011;9854;50.968;4.168;2022-08-01T04:32:29;14.57;;;8.63;;
19436;SDS011;9854;50.968;4.168;2022-08-01T04:35:01;14.98;;;8.30;;
19436;SDS011;9854;50.968;4.168;2022-08-01T04:37:30;16.13;;;8.38;;
19436;SDS011;9854;50.968;4.168;2022-08-01T04:39:56;13.50;;;7.32;;
19436;SDS011;9854;50.968;4.168;2022-08-01T04:42:24;12.75;;;7.43;;
19436;SDS011;9854;50.968;4.168;2022-08-01T04:44:49;11.88;;;7.32;;
19436;SDS011;9854;50.968;4.168;2022-08-01T04:47:15;11.55;;;7.50;;
19436;SDS011;9854;50.968;4.168;2022-08-01T04:49:42;9.45;;;6.90;;
19436;SDS011;9854;50.968;4.168;2022-08-01T04:52:10;14.43;;;7.22;;
19436;SDS011;9854;50.968;4.168;2022-08-01T04:54:36;13.60;;;7.57;;
19436;SDS011;9854;50.968;4.168;2022-08-01T04:57:02;16.13;;;7.38;;
19436;SDS011;9854;50.968;4.168;2022-08-01T04:59:31;8.25;;;6.13;;
19436;SDS011;9854;50.968;4.168;2022-08-01T05:02:06;11.85;;;7.07;;
19436;SDS011;9854;50.968;4.168;2022-08-01T05:04:32;10.30;;;6.10;;
19436;SDS011;9854;50.968;4.168;2022-08-01T05:06:58;10.75;;;6.60;;
19436;SDS011;9854;50.968;4.168;2022-08-01T05:09:24;11.63;;;5.97;;
19436;SDS011;9854;50.968;4.168;2022-08-01T05:11:50;8.88;;;5.95;;
19436;SDS011;9854;50.968;4.168;2022-08-01T05:14:16;7.57;;;5.90;;
19436;SDS011;9854;50.968;4.168;2022-08-01T05:16:42;7.60;;;5.75;;
19436;SDS011;9854;50.968;4.168;2022-08-01T05:19:07;9.90;;;6.15;;
19436;SDS011;9854;50.968;4.168;2022-08-01T05:21:34;8.55;;;6.00;;
19436;SDS011;9854;50.968;4.168;2022-08-01T05:24:00;6.25;;;4.97;;
19436;SDS011;9854;50.968;4.168;2022-08-01T05:26:25;10.15;;;6.35;;
19436;SDS011;9854;50.968;4.168;2022-08-01T05:28:51;10.68;;;5.85;;
19436;SDS011;9854;50.968;4.168;2022-08-01T05:31:17;8.68;;;4.80;;
19436;SDS011;9854;50.968;4.168;2022-08-01T05:33:42;11.20;;;6.38;;
19436;SDS011;9854;50.968;4.168;2022-08-01T05:36:08;11.23;;;5.82;;
19436;SDS011;9854;50.968;4.168;2022-08-01T05:38:33;7.30;;;5.68;;
19436;SDS011;9854;50.968;4.168;2022-08-01T05:40:59;12.05;;;5.97;;
19436;SDS011;9854;50.968;4.168;2022-08-01T05:43:25;8.48;;;5.35;;
19436;SDS011;9854;50.968;4.168;2022-08-01T05:45:51;10.93;;;5.20;;
19436;SDS011;9854;50.968;4.168;2022-08-01T05:48:16;8.30;;;5.03;;
19436;SDS011;9854;50.968;4.168;2022-08-01T05:50:42;8.00;;;5.53;;
19436;SDS011;9854;50.968;4.168;2022-08-01T05:53:08;7.57;;;4.63;;
19436;SDS011;9854;50.968;4.168;2022-08-01T05:55:34;7.78;;;3.88;;
19436;SDS011;9854;50.968;4.168;2022-08-01T05:58:00;5.28;;;3.65;;
19436;SDS011;9854;50.968;4.168;2022-08-01T06:00:25;4.80;;;3.63;;
19436;SDS011;9854;50.968;4.168;2022-08-01T06:02:51;6.25;;;3.17;;
19436;SDS011;9854;50.968;4.168;2022-08-01T06:05:17;6.55;;;3.67;;
19436;SDS011;9854;50.968;4.168;2022-08-01T06:07:42;6.03;;;3.80;;
19436;SDS011;9854;50.968;4.168;2022-08-01T06:10:08;6.05;;;2.78;;
19436;SDS011;9854;50.968;4.168;2022-08-01T06:12:35;6.80;;;3.47;;
19436;SDS011;9854;50.968;4.168;2022-08-01T06:15:02;3.65;;;3.05;;
19436;SDS011;9854;50.968;4.168;2022-08-01T06:17:28;3.67;;;2.72;;
19436;SDS011;9854;50.968;4.168;2022-08-01T06:19:54;9.60;;;3.40;;
19436;SDS011;9854;50.968;4.168;2022-08-01T06:22:20;4.05;;;3.13;;
19436;SDS011;9854;50.968;4.168;2022-08-01T06:24:46;6.72;;;3.25;;
19436;SDS011;9854;50.968;4.168;2022-08-01T06:27:12;3.28;;;2.47;;
19436;SDS011;9854;50.968;4.168;2022-08-01T06:29:37;2.85;;;2.50;;
19436;SDS011;9854;50.968;4.168;2022-08-01T06:32:03;3.20;;;2.40;;
19436;SDS011;9854;50.968;4.168;2022-08-01T06:34:29;2.28;;;2.05;;
19436;SDS011;9854;50.968;4.168;2022-08-01T06:36:55;4.10;;;2.60;;
19436;SDS011;9854;50.968;4.168;2022-08-01T06:39:20;4.70;;;2.13;;
19436;SDS011;9854;50.968;4.168;2022-08-01T06:41:46;7.97;;;2.72;;
19436;SDS011;9854;50.968;4.168;2022-08-01T06:44:15;2.10;;;1.75;;
19436;SDS011;9854;50.968;4.168;2022-08-01T06:46:40;3.05;;;1.90;;
19436;SDS011;9854;50.968;4.168;2022-08-01T06:49:06;3.38;;;2.20;;
19436;SDS011;9854;50.968;4.168;2022-08-01T06:51:32;2.30;;;2.10;;
19436;SDS011;9854;50.968;4.168;2022-08-01T06:53:57;3.22;;;2.30;;
19436;SDS011;9854;50.968;4.168;2022-08-01T06:56:23;7.15;;;2.13;;
19436;SDS011;9854;50.968;4.168;2022-08-01T06:58:49;2.53;;;2.08;;
19436;SDS011;9854;50.968;4.168;2022-08-01T07:01:15;2.50;;;1.90;;
19436;SDS011;9854;50.968;4.168;2022-08-01T07:03:41;2.83;;;1.85;;
19436;SDS011;9854;50.968;4.168;2022-08-01T07:06:07;1.77;;;1.67;;
19436;SDS011;9854;50.968;4.168;2022-08-01T07:08:32;3.08;;;2.20;;
19436;SDS011;9854;50.968;4.168;2022-08-01T07:10:58;2.10;;;1.60;;
19436;SDS011;9854;50.968;4.168;2022-08-01T07:13:25;2.30;;;2.10;;
19436;SDS011;9854;50.968;4.168;2022-08-01T07:15:51;5.47;;;1.95;;
19436;SDS011;9854;50.968;4.168;2022-08-01T07:18:17;5.40;;;1.98;;
19436;SDS011;9854;50.968;4.168;2022-08-01T07:20:43;2.10;;;1.90;;
19436;SDS011;9854;50.968;4.168;2022-08-01T07:23:11;4.53;;;2.17;;
19436;SDS011;9854;50.968;4.168;2022-08-01T07:25:37;5.22;;;2.50;;
19436;SDS011;9854;50.968;4.168;2022-08-01T07:28:02;4.53;;;1.80;;
19436;SDS011;9854;50.968;4.168;2022-08-01T07:30:28;2.17;;;1.40;;
19436;SDS011;9854;50.968;4.168;2022-08-01T07:32:54;1.67;;;1.52;;
19436;SDS011;9854;50.968;4.168;2022-08-01T07:35:19;2.92;;;1.60;;
19436;SDS011;9854;50.968;4.168;2022-08-01T07:37:45;1.45;;;1.33;;
19436;SDS011;9854;50.968;4.168;2022-08-01T07:40:11;2.38;;;1.50;;
19436;SDS011;9854;50.968;4.168;2022-08-01T07:42:37;1.48;;;1.30;;
19436;SDS011;9854;50.968;4.168;2022-08-01T07:45:02;2.28;;;1.25;;
19436;SDS011;9854;50.968;4.168;2022-08-01T07:47:28;1.45;;;1.35;;
19436;SDS011;9854;50.968;4.168;2022-08-01T07:50:00;2.97;;;1.52;;
19436;SDS011;9854;50.968;4.168;2022-08-01T07:52:26;1.35;;;1.20;;
19436;SDS011;9854;50.968;4.168;2022-08-01T07:54:52;2.47;;;1.38;;
19436;SDS011;9854;50.968;4.168;2022-08-01T07:57:18;2.28;;;1.15;;
19436;SDS011;9854;50.968;4.168;2022-08-01T07:59:43;2.15;;;1.05;;
19436;SDS011;9854;50.968;4.168;2022-08-01T08:02:09;3.55;;;1.40;;
19436;SDS011;9854;50.968;4.168;2022-08-01T08:04:34;1.75;;;1.40;;
19436;SDS011;9854;50.968;4.168;2022-08-01T08:07:00;2.55;;;1.65;;
19436;SDS011;9854;50.968;4.168;2022-08-01T08:09:26;1.45;;;1.27;;
19436;SDS011;9854;50.968;4.168;2022-08-01T08:11:51;3.65;;;1.20;;
19436;SDS011;9854;50.968;4.168;2022-08-01T08:14:17;1.25;;;0.88;;
19436;SDS011;9854;50.968;4.168;2022-08-01T08:16:43;1.65;;;0.98;;
19436;SDS011;9854;50.968;4.168;2022-08-01T08:19:10;1.73;;;1.10;;
19436;SDS011;9854;50.968;4.168;2022-08-01T08:21:36;1.65;;;0.93;;
19436;SDS011;9854;50.968;4.168;2022-08-01T08:24:02;5.13;;;1.00;;
19436;SDS011;9854;50.968;4.168;2022-08-01T08:26:52;4.25;;;1.00;;
19436;SDS011;9854;50.968;4.168;2022-08-01T08:29:20;1.83;;;0.70;;
19436;SDS011;9854;50.968;4.168;2022-08-01T08:31:46;1.83;;;0.90;;
19436;SDS011;9854;50.968;4.168;2022-08-01T08:34:12;1.35;;;0.70;;
19436;SDS011;9854;50.968;4.168;2022-08-01T08:36:38;4.15;;;0.88;;
19436;SDS011;9854;50.968;4.168;2022-08-01T08:39:04;1.45;;;0.85;;
19436;SDS011;9854;50.968;4.168;2022-08-01T08:41:33;2.28;;;0.98;;
19436;SDS011;9854;50.968;4.168;2022-08-01T08:44:00;1.65;;;0.70;;
19436;SDS011;9854;50.968;4.168;2022-08-01T08:46:27;1.15;;;0.60;;
19436;SDS011;9854;50.968;4.168;2022-08-01T08:48:53;2.38;;;0.70;;
19436;SDS011;9854;50.968;4.168;2022-08-01T08:51:20;3.20;;;0.70;;
19436;SDS011;9854;50.968;4.168;2022-08-01T08:53:48;1.88;;;0.70;;
19436;SDS011;9854;50.968;4.168;2022-08-01T08:56:17;1.55;;;0.80;;
19436;SDS011;9854;50.968;4.168;2022-08-01T08:58:43;1.15;;;0.70;;
19436;SDS011;9854;50.968;4.168;2022-08-01T09:01:10;1.13;;;0.65;;
19436;SDS011;9854;50.968;4.168;2022-08-01T09:03:37;0.90;;;0.60;;
19436;SDS011;9854;50.968;4.168;2022-08-01T09:06:03;1.08;;;0.60;;
19436;SDS011;9854;50.968;4.168;2022-08-01T09:08:29;0.60;;;0.40;;
19436;SDS011;9854;50.968;4.168;2022-08-01T09:10:55;1.13;;;0.57;;
19436;SDS011;9854;50.968;4.168;2022-08-01T09:13:21;0.90;;;0.47;;
19436;SDS011;9854;50.968;4.168;2022-08-01T09:15:47;3.03;;;0.57;;
19436;SDS011;9854;50.968;4.168;2022-08-01T09:23:36;1.65;;;0.38;;
19436;SDS011;9854;50.968;4.168;2022-08-01T09:26:05;0.98;;;0.45;;
19436;SDS011;9854;50.968;4.168;2022-08-01T09:28:32;1.05;;;0.55;;
19436;SDS011;9854;50.968;4.168;2022-08-01T09:30:58;0.77;;;0.40;;
19436;SDS011;9854;50.968;4.168;2022-08-01T09:33:47;0.93;;;0.45;;
19436;SDS011;9854;50.968;4.168;2022-08-01T09:36:21;2.60;;;0.43;;
19436;SDS011;9854;50.968;4.168;2022-08-01T09:38:48;3.70;;;0.70;;
19436;SDS011;9854;50.968;4.168;2022-08-01T09:41:15;1.30;;;0.63;;
19436;SDS011;9854;50.968;4.168;2022-08-01T09:43:40;0.50;;;0.45;;
19436;SDS011;9854;50.968;4.168;2022-08-01T09:46:14;1.42;;;0.60;;
19436;SDS011;9854;50.968;4.168;2022-08-01T09:49:01;1.02;;;0.50;;
19436;SDS011;9854;50.968;4.168;2022-08-01T09:51:36;0.68;;;0.55;;
19436;SDS011;9854;50.968;4.168;2022-08-01T09:54:04;2.13;;;0.73;;
19436;SDS011;9854;50.968;4.168;2022-08-01T09:56:41;1.95;;;0.70;;
19436;SDS011;9854;50.968;4.168;2022-08-01T09:59:07;1.08;;;0.50;;
19436;SDS011;9854;50.968;4.168;2022-08-01T10:01:47;1.85;;;0.70;;
19436;SDS011;9854;50.968;4.168;2022-08-01T10:04:15;3.72;;;0.45;;
19436;SDS011;9854;50.968;4.168;2022-08-01T10:06:42;3.42;;;0.75;;
19436;SDS011;9854;50.968;4.168;2022-08-01T10:09:09;2.42;;;0.57;;
19436;SDS011;9854;50.968;4.168;2022-08-01T10:11:37;1.27;;;0.50;;
19436;SDS011;9854;50.968;4.168;2022-08-01T10:14:04;5.50;;;0.70;;
19436;SDS011;9854;50.968;4.168;2022-08-01T10:16:30;1.50;;;0.80;;
19436;SDS011;9854;50.968;4.168;2022-08-01T10:18:58;1.65;;;0.57;;
19436;SDS011;9854;50.968;4.168;2022-08-01T10:21:26;1.55;;;0.93;;
19436;SDS011;9854;50.968;4.168;2022-08-01T10:23:53;1.48;;;0.70;;
19436;SDS011;9854;50.968;4.168;2022-08-01T10:26:20;1.65;;;0.68;;
19436;SDS011;9854;50.968;4.168;2022-08-01T10:28:49;1.42;;;0.60;;
19436;SDS011;9854;50.968;4.168;2022-08-01T10:31:16;0.85;;;0.40;;
19436;SDS011;9854;50.968;4.168;2022-08-01T10:33:43;1.52;;;0.68;;
19436;SDS011;9854;50.968;4.168;2022-08-01T10:36:09;2.40;;;0.60;;
19436;SDS011;9854;50.968;4.168;2022-08-01T10:38:35;1.92;;;0.93;;
19436;SDS011;9854;50.968;4.168;2022-08-01T10:41:02;4.93;;;1.08;;
19436;SDS011;9854;50.968;4.168;2022-08-01T10:43:29;1.50;;;0.60;;
19436;SDS011;9854;50.968;4.168;2022-08-01T10:45:55;1.30;;;0.57;;
19436;SDS011;9854;50.968;4.168;2022-08-01T10:48:27;0.88;;;0.60;;
19436;SDS011;9854;50.968;4.168;2022-08-01T10:51:01;3.03;;;0.70;;
19436;SDS011;9854;50.968;4.168;2022-08-01T10:53:28;3.17;;;0.52;;
19436;SDS011;9854;50.968;4.168;2022-08-01T10:58:29;2.45;;;0.90;;
19436;SDS011;9854;50.968;4.168;2022-08-01T11:01:19;1.05;;;0.60;;
19436;SDS011;9854;50.968;4.168;2022-08-01T11:06:22;2.60;;;0.70;;
19436;SDS011;9854;50.968;4.168;2022-08-01T11:08:51;2.22;;;0.90;;
19436;SDS011;9854;50.968;4.168;2022-08-01T11:11:18;2.38;;;0.70;;
19436;SDS011;9854;50.968;4.168;2022-08-01T11:16:33;3.17;;;1.00;;
19436;SDS011;9854;50.968;4.168;2022-08-01T11:19:00;2.10;;;0.80;;
19436;SDS011;9854;50.968;4.168;2022-08-01T11:24:43;2.05;;;0.65;;
19436;SDS011;9854;50.968;4.168;2022-08-01T11:27:29;3.20;;;0.60;;
19436;SDS011;9854;50.968;4.168;2022-08-01T11:32:46;2.20;;;0.70;;
19436;SDS011;9854;50.968;4.168;2022-08-01T11:35:14;3.45;;;0.68;;
19436;SDS011;9854;50.968;4.168;2022-08-01T11:37:40;1.58;;;0.70;;
19436;SDS011;9854;50.968;4.168;2022-08-01T11:40:26;1.10;;;0.60;;
19436;SDS011;9854;50.968;4.168;2022-08-01T11:43:34;2.72;;;0.80;;
19436;SDS011;9854;50.968;4.168;2022-08-01T11:46:15;2.03;;;0.85;;
19436;SDS011;9854;50.968;4.168;2022-08-01T11:48:34;2.28;;;1.05;;
19436;SDS011;9854;50.968;4.168;2022-08-01T11:50:59;1.10;;;0.60;;
19436;SDS011;9854;50.968;4.168;2022-08-01T11:53:25;2.90;;;0.85;;
19436;SDS011;9854;50.968;4.168;2022-08-01T11:55:52;1.70;;;1.10;;
19436;SDS011;9854;50.968;4.168;2022-08-01T11:58:22;0.80;;;0.75;;
19436;SDS011;9854;50.968;4.168;2022-08-01T12:00:52;2.00;;;0.98;;
19436;SDS011;9854;50.968;4.168;2022-08-01T12:03:25;2.28;;;0.88;;
19436;SDS011;9854;50.968;4.168;2022-08-01T12:05:56;3.35;;;0.85;;
19436;SDS011;9854;50.968;4.168;2022-08-01T12:08:28;1.55;;;0.77;;
19436;SDS011;9854;50.968;4.168;2022-08-01T12:10:58;3.63;;;0.90;;
19436;SDS011;9854;50.968;4.168;2022-08-01T12:13:25;3.42;;;0.80;;
19436;SDS011;9854;50.968;4.168;2022-08-01T12:15:51;3.15;;;0.90;;
19436;SDS011;9854;50.968;4.168;2022-08-01T12:18:17;4.68;;;0.90;;
19436;SDS011;9854;50.968;4.168;2022-08-01T12:20:45;1.55;;;0.90;;
19436;SDS011;9854;50.968;4.168;2022-08-01T12:23:12;0.93;;;0.70;;
19436;SDS011;9854;50.968;4.168;2022-08-01T12:25:39;1.83;;;0.65;;
19436;SDS011;9854;50.968;4.168;2022-08-01T12:28:07;5.45;;;0.80;;
19436;SDS011;9854;50.968;4.168;2022-08-01T12:30:34;3.42;;;0.77;;
19436;SDS011;9854;50.968;4.168;2022-08-01T12:33:05;1.17;;;0.80;;
19436;SDS011;9854;50.968;4.168;2022-08-01T12:35:33;3.03;;;0.65;;
19436;SDS011;9854;50.968;4.168;2022-08-01T12:38:04;1.67;;;0.73;;
19436;SDS011;9854;50.968;4.168;2022-08-01T12:40:32;3.35;;;0.75;;
19436;SDS011;9854;50.968;4.168;2022-08-01T12:43:01;2.42;;;0.90;;
19436;SDS011;9854;50.968;4.168;2022-08-01T12:47:57;1.80;;;0.68;;
19436;SDS011;9854;50.968;4.168;2022-08-01T12:50:25;1.85;;;0.88;;
19436;SDS011;9854;50.968;4.168;2022-08-01T12:52:54;1.92;;;0.50;;
19436;SDS011;9854;50.968;4.168;2022-08-01T12:55:21;1.98;;;0.63;;
19436;SDS011;9854;50.968;4.168;2022-08-01T12:57:49;1.92;;;0.88;;
19436;SDS011;9854;50.968;4.168;2022-08-01T13:00:27;1.67;;;0.50;;
19436;SDS011;9854;50.968;4.168;2022-08-01T13:03:06;6.07;;;0.70;;
19436;SDS011;9854;50.968;4.168;2022-08-01T13:05:45;2.03;;;0.85;;
19436;SDS011;9854;50.968;4.168;2022-08-01T13:08:17;1.45;;;0.70;;
19436;SDS011;9854;50.968;4.168;2022-08-01T13:11:07;1.67;;;0.70;;
19436;SDS011;9854;50.968;4.168;2022-08-01T13:13:41;1.83;;;0.65;;
19436;SDS011;9854;50.968;4.168;2022-08-01T13:16:09;2.53;;;0.73;;
19436;SDS011;9854;50.968;4.168;2022-08-01T13:18:36;2.78;;;0.80;;
19436;SDS011;9854;50.968;4.168;2022-08-01T13:24:27;1.90;;;0.60;;
19436;SDS011;9854;50.968;4.168;2022-08-01T13:26:41;2.55;;;0.70;;
19436;SDS011;9854;50.968;4.168;2022-08-01T13:29:15;2.88;;;0.70;;
19436;SDS011;9854;50.968;4.168;2022-08-01T13:31:53;2.00;;;0.90;;
19436;SDS011;9854;50.968;4.168;2022-08-01T13:34:19;5.85;;;0.68;;
19436;SDS011;9854;50.968;4.168;2022-08-01T13:36:58;1.10;;;0.80;;
19436;SDS011;9854;50.968;4.168;2022-08-01T13:39:26;3.40;;;0.90;;
19436;SDS011;9854;50.968;4.168;2022-08-01T13:42:06;2.15;;;0.63;;
19436;SDS011;9854;50.968;4.168;2022-08-01T13:44:32;1.48;;;0.75;;
19436;SDS011;9854;50.968;4.168;2022-08-01T13:46:58;1.08;;;0.60;;
19436;SDS011;9854;50.968;4.168;2022-08-01T13:49:24;1.67;;;0.70;;
19436;SDS011;9854;50.968;4.168;2022-08-01T13:51:49;3.13;;;0.57;;
19436;SDS011;9854;50.968;4.168;2022-08-01T13:54:15;2.05;;;0.50;;
19436;SDS011;9854;50.968;4.168;2022-08-01T13:56:41;2.45;;;0.68;;
19436;SDS011;9854;50.968;4.168;2022-08-01T13:59:07;3.90;;;0.80;;
19436;SDS011;9854;50.968;4.168;2022-08-01T14:01:33;3.60;;;0.70;;
19436;SDS011;9854;50.968;4.168;2022-08-01T14:03:59;1.80;;;0.63;;
19436;SDS011;9854;50.968;4.168;2022-08-01T14:06:25;1.35;;;0.55;;
19436;SDS011;9854;50.968;4.168;2022-08-01T14:08:50;2.83;;;0.60;;
19436;SDS011;9854;50.968;4.168;2022-08-01T14:11:16;1.38;;;0.60;;
19436;SDS011;9854;50.968;4.168;2022-08-01T14:13:42;1.58;;;0.60;;
19436;SDS011;9854;50.968;4.168;2022-08-01T14:16:08;1.50;;;0.52;;
19436;SDS011;9854;50.968;4.168;2022-08-01T14:18:33;4.05;;;0.60;;
19436;SDS011;9854;50.968;4.168;2022-08-01T14:20:59;1.20;;;0.40;;
19436;SDS011;9854;50.968;4.168;2022-08-01T14:23:25;2.92;;;0.60;;
19436;SDS011;9854;50.968;4.168;2022-08-01T14:25:51;2.03;;;0.68;;
19436;SDS011;9854;50.968;4.168;2022-08-01T14:28:17;1.67;;;0.73;;
19436;SDS011;9854;50.968;4.168;2022-08-01T14:30:43;0.93;;;0.68;;
19436;SDS011;9854;50.968;4.168;2022-08-01T14:33:09;5.38;;;0.70;;
19436;SDS011;9854;50.968;4.168;2022-08-01T14:35:36;2.92;;;0.90;;
19436;SDS011;9854;50.968;4.168;2022-08-01T14:38:01;1.40;;;0.50;;
19436;SDS011;9854;50.968;4.168;2022-08-01T14:40:28;1.10;;;0.60;;
19436;SDS011;9854;50.968;4.168;2022-08-01T14:42:54;2.17;;;0.70;;
19436;SDS011;9854;50.968;4.168;2022-08-01T14:45:19;1.05;;;0.63;;
19436;SDS011;9854;50.968;4.168;2022-08-01T14:47:45;1.73;;;0.70;;
19436;SDS011;9854;50.968;4.168;2022-08-01T14:50:12;3.38;;;0.52;;
19436;SDS011;9854;50.968;4.168;2022-08-01T14:52:40;1.40;;;0.52;;
19436;SDS011;9854;50.968;4.168;2022-08-01T14:55:07;1.52;;;0.60;;
19436;SDS011;9854;50.968;4.168;2022-08-01T14:57:35;5.68;;;1.02;;
19436;SDS011;9854;50.968;4.168;2022-08-01T15:00:02;3.13;;;0.70;;
19436;SDS011;9854;50.968;4.168;2022-08-01T15:02:30;1.30;;;0.50;;
19436;SDS011;9854;50.968;4.168;2022-08-01T15:04:55;0.95;;;0.50;;
19436;SDS011;9854;50.968;4.168;2022-08-01T15:07:21;3.42;;;0.63;;
19436;SDS011;9854;50.968;4.168;2022-08-01T15:09:46;4.13;;;0.63;;
19436;SDS011;9854;50.968;4.168;2022-08-01T15:12:12;2.85;;;0.40;;
19436;SDS011;9854;50.968;4.168;2022-08-01T15:14:38;2.95;;;0.50;;
19436;SDS011;9854;50.968;4.168;2022-08-01T15:17:12;0.80;;;0.40;;
19436;SDS011;9854;50.968;4.168;2022-08-01T15:19:49;0.50;;;0.40;;
19436;SDS011;9854;50.968;4.168;2022-08-01T15:22:17;1.85;;;0.43;;
19436;SDS011;9854;50.968;4.168;2022-08-01T15:24:43;0.65;;;0.38;;
19436;SDS011;9854;50.968;4.168;2022-08-01T15:27:09;0.50;;;0.50;;
19436;SDS011;9854;50.968;4.168;2022-08-01T15:29:35;2.40;;;0.60;;
19436;SDS011;9854;50.968;4.168;2022-08-01T15:32:02;3.00;;;0.40;;
19436;SDS011;9854;50.968;4.168;2022-08-01T15:34:29;0.40;;;0.40;;
19436;SDS011;9854;50.968;4.168;2022-08-01T15:36:55;2.95;;;0.65;;